Time;durP1;ratioP1;P1;durP2;ratioP2;P2;SDS_P1;SDS_P2;PMS_P1;PMS_P2;Temp;Humidity;BMP_temperature;BMP_pressure;BME280_temperature;BME280_humidity;BME280_pressure;Samples;Min_cycle;Max_cycle;Signal;HPM_P1;HPM_P2
2022/09/20 00:01:27;;;;;;;6.70;2.60;;;;;;;;;;5051494;28;20033;-82
2022/09/20 00:03:55;;;;;;;7.95;2.78;;;;;;;;;;5059999;28;20505;-81
2022/09/20 00:06:22;;;;;;;5.80;2.65;;;;;;;;;;5067825;28;20048;-81
2022/09/20 00:08:49;;;;;;;6.88;2.70;;;;;;;;;;5057494;28;20048;-82
2022/09/20 00:11:19;;;;;;;6.72;3.00;;;;;;;;;;5061024;28;20062;-82
2022/09/20 00:13:46;;;;;;;8.43;2.80;;;;;;;;;;5054301;28;20431;-81
2022/09/20 00:16:14;;;;;;;8.60;3.00;;;;;;;;;;5060059;28;20104;-80
2022/09/20 00:18:40;;;;;;;4.35;2.60;;;;;;;;;;5055695;28;20557;-84
2022/09/20 00:21:07;;;;;;;6.05;2.75;;;;;;;;;;5056879;28;20033;-85
2022/09/20 00:23:35;;;;;;;5.50;2.92;;;;;;;;;;5053424;28;20484;-84
2022/09/20 00:26:02;;;;;;;6.30;2.83;;;;;;;;;;5054449;28;20021;-84
2022/09/20 00:28:29;;;;;;;4.10;2.38;;;;;;;;;;5057996;28;20020;-85
2022/09/20 00:30:55;;;;;;;11.55;3.33;;;;;;;;;;5053967;28;20031;-82
2022/09/20 00:33:23;;;;;;;5.03;2.65;;;;;;;;;;5059158;28;20031;-85
2022/09/20 00:35:49;;;;;;;3.90;2.42;;;;;;;;;;5053740;28;20477;-84
2022/09/20 00:38:16;;;;;;;15.98;3.38;;;;;;;;;;5054931;28;20041;-83
2022/09/20 00:40:43;;;;;;;4.93;2.92;;;;;;;;;;5054915;28;20060;-83
2022/09/20 00:43:16;;;;;;;6.20;3.03;;;;;;;;;;5057154;28;20126;-84
2022/09/20 00:45:44;;;;;;;7.45;3.08;;;;;;;;;;5058233;28;20017;-83
2022/09/20 00:48:13;;;;;;;9.43;3.05;;;;;;;;;;5055602;28;20031;-83
2022/09/20 00:50:43;;;;;;;8.95;2.80;;;;;;;;;;5056859;28;20098;-84
2022/09/20 00:53:18;;;;;;;10.05;2.97;;;;;;;;;;5059900;28;20061;-85
2022/09/20 00:55:49;;;;;;;7.55;2.55;;;;;;;;;;5057669;28;20031;-84
2022/09/20 00:58:16;;;;;;;6.75;2.97;;;;;;;;;;5055064;28;20392;-84
2022/09/20 01:00:43;;;;;;;8.52;2.90;;;;;;;;;;5055460;28;20123;-85
2022/09/20 01:03:10;;;;;;;6.85;3.20;;;;;;;;;;5055344;28;20513;-85
2022/09/20 01:05:37;;;;;;;5.88;2.80;;;;;;;;;;5056292;28;20025;-84
2022/09/20 01:08:03;;;;;;;7.32;2.80;;;;;;;;;;5055207;28;20033;-84
2022/09/20 01:10:31;;;;;;;4.85;2.70;;;;;;;;;;5053572;28;20037;-84
2022/09/20 01:12:57;;;;;;;10.32;3.25;;;;;;;;;;5053652;28;20058;-84
2022/09/20 01:15:25;;;;;;;7.47;3.08;;;;;;;;;;5062942;28;20024;-84
2022/09/20 01:17:52;;;;;;;7.00;2.88;;;;;;;;;;5059497;28;20021;-84
2022/09/20 01:20:21;;;;;;;4.80;2.72;;;;;;;;;;5063036;28;20028;-85
2022/09/20 01:23:00;;;;;;;5.70;2.80;;;;;;;;;;5059906;28;20409;-85
2022/09/20 01:25:47;;;;;;;9.63;2.88;;;;;;;;;;5061663;28;20405;-83
2022/09/20 01:28:13;;;;;;;10.75;3.22;;;;;;;;;;5062891;28;20026;-84
2022/09/20 01:30:56;;;;;;;5.00;2.47;;;;;;;;;;5058829;28;20020;-83
2022/09/20 01:33:27;;;;;;;7.25;2.80;;;;;;;;;;5068247;28;20025;-83
2022/09/20 01:35:54;;;;;;;8.10;2.63;;;;;;;;;;5061324;28;20369;-82
2022/09/20 01:38:43;;;;;;;5.05;2.85;;;;;;;;;;5055490;28;20025;-82
2022/09/20 01:41:19;;;;;;;4.32;2.85;;;;;;;;;;5053729;28;20037;-82
2022/09/20 01:43:52;;;;;;;6.95;2.72;;;;;;;;;;5058234;28;20465;-82
2022/09/20 01:46:28;;;;;;;6.35;3.15;;;;;;;;;;5052158;28;20470;-82
2022/09/20 01:48:59;;;;;;;5.97;3.00;;;;;;;;;;5057892;28;20108;-82
2022/09/20 01:51:31;;;;;;;6.33;2.97;;;;;;;;;;5052746;28;20044;-82
2022/09/20 01:53:57;;;;;;;3.92;2.90;;;;;;;;;;5055387;28;20311;-83
2022/09/20 01:56:26;;;;;;;6.70;2.72;;;;;;;;;;5054865;28;20029;-83
2022/09/20 01:58:53;;;;;;;4.68;2.80;;;;;;;;;;5056253;28;20017;-84
2022/09/20 02:01:44;;;;;;;6.50;3.15;;;;;;;;;;5054764;28;20056;-84
2022/09/20 02:04:23;;;;;;;5.38;3.33;;;;;;;;;;5053132;28;20047;-84
2022/09/20 02:06:56;;;;;;;4.80;2.63;;;;;;;;;;5053463;28;20083;-84
2022/09/20 02:09:41;;;;;;;8.25;2.90;;;;;;;;;;5056321;28;20029;-84
2022/09/20 02:12:09;;;;;;;5.80;2.50;;;;;;;;;;5054762;28;20043;-82
2022/09/20 02:14:43;;;;;;;5.75;2.70;;;;;;;;;;5054343;28;20017;-83
2022/09/20 02:17:13;;;;;;;7.93;2.90;;;;;;;;;;5054720;28;20571;-83
2022/09/20 02:19:57;;;;;;;10.32;3.58;;;;;;;;;;5055668;28;20051;-83
2022/09/20 02:22:36;;;;;;;6.15;2.80;;;;;;;;;;5055846;28;20451;-83
2022/09/20 02:25:05;;;;;;;6.45;3.13;;;;;;;;;;5060960;28;20396;-82
2022/09/20 02:27:52;;;;;;;5.47;2.90;;;;;;;;;;5054669;28;20025;-84
2022/09/20 02:30:37;;;;;;;6.43;2.55;;;;;;;;;;5054450;28;20009;-83
2022/09/20 02:33:24;;;;;;;7.90;3.08;;;;;;;;;;5054517;28;20477;-82
2022/09/20 02:35:56;;;;;;;5.57;2.70;;;;;;;;;;5053777;28;20071;-83
2022/09/20 02:38:33;;;;;;;6.85;2.90;;;;;;;;;;5059129;28;20388;-81
2022/09/20 02:41:18;;;;;;;7.18;3.22;;;;;;;;;;5053746;28;20055;-82
2022/09/20 02:43:48;;;;;;;6.65;3.00;;;;;;;;;;5070670;28;20665;-81
2022/09/20 02:46:37;;;;;;;11.85;3.70;;;;;;;;;;5055312;28;20046;-82
2022/09/20 02:49:22;;;;;;;6.32;2.70;;;;;;;;;;5053553;28;20037;-83
2022/09/20 02:52:00;;;;;;;7.03;3.15;;;;;;;;;;5055117;28;20025;-83
2022/09/20 02:54:45;;;;;;;7.95;3.53;;;;;;;;;;5052755;28;20078;-82
2022/09/20 02:57:14;;;;;;;8.05;4.07;;;;;;;;;;5053866;28;20029;-81
2022/09/20 02:59:46;;;;;;;15.98;6.75;;;;;;;;;;5055096;28;20498;-83
2022/09/20 03:02:15;;;;;;;4.85;3.13;;;;;;;;;;5054955;28;20029;-84
2022/09/20 03:04:55;;;;;;;7.57;3.53;;;;;;;;;;5052769;28;20086;-83
2022/09/20 03:07:47;;;;;;;8.43;2.92;;;;;;;;;;5049828;28;20025;-83
2022/09/20 03:10:18;;;;;;;9.52;3.17;;;;;;;;;;5052825;28;20048;-83
2022/09/20 03:12:51;;;;;;;8.47;3.77;;;;;;;;;;5057273;28;20055;-83
2022/09/20 03:15:36;;;;;;;14.05;8.73;;;;;;;;;;5053670;28;20040;-82
2022/09/20 03:18:12;;;;;;;6.82;3.50;;;;;;;;;;5049057;28;20047;-82
2022/09/20 03:20:44;;;;;;;7.68;3.40;;;;;;;;;;5047902;28;20095;-83
2022/09/20 03:23:18;;;;;;;4.93;2.78;;;;;;;;;;5052578;28;20108;-83
2022/09/20 03:25:51;;;;;;;7.53;3.13;;;;;;;;;;5056875;28;20032;-83
2022/09/20 03:28:43;;;;;;;7.05;3.50;;;;;;;;;;5051014;28;20100;-83
2022/09/20 03:31:19;;;;;;;8.80;3.40;;;;;;;;;;5049356;28;20025;-83
2022/09/20 03:33:45;;;;;;;6.60;3.00;;;;;;;;;;5052740;28;20043;-83
2022/09/20 03:36:11;;;;;;;11.75;4.72;;;;;;;;;;5056532;28;20033;-83
2022/09/20 03:38:56;;;;;;;9.65;3.22;;;;;;;;;;5051450;28;20775;-83
2022/09/20 03:41:22;;;;;;;5.63;3.10;;;;;;;;;;5051841;28;20500;-83
2022/09/20 03:43:52;;;;;;;6.53;2.97;;;;;;;;;;5056697;28;20090;-84
2022/09/20 03:46:19;;;;;;;6.45;3.08;;;;;;;;;;5053755;28;20017;-83
2022/09/20 03:48:59;;;;;;;3.75;2.78;;;;;;;;;;5055174;28;20039;-83
2022/09/20 03:51:25;;;;;;;5.80;2.80;;;;;;;;;;5054103;28;20290;-84
2022/09/20 03:53:58;;;;;;;3.72;2.90;;;;;;;;;;5064660;28;20505;-86
2022/09/20 03:56:24;;;;;;;4.95;2.80;;;;;;;;;;5050450;28;20036;-85
2022/09/20 03:58:57;;;;;;;6.68;2.90;;;;;;;;;;5056410;28;20017;-86
2022/09/20 04:01:52;;;;;;;4.72;2.50;;;;;;;;;;5052897;28;20044;-86
2022/09/20 04:04:37;;;;;;;8.73;2.88;;;;;;;;;;5059009;28;20044;-85
2022/09/20 04:07:19;;;;;;;8.80;2.60;;;;;;;;;;5051360;28;20043;-85
2022/09/20 04:10:12;;;;;;;5.43;2.60;;;;;;;;;;5054806;28;20191;-86
2022/09/20 04:12:57;;;;;;;4.05;2.33;;;;;;;;;;5051604;28;20062;-82
2022/09/20 04:15:29;;;;;;;6.30;3.00;;;;;;;;;;5053764;28;20515;-83
2022/09/20 04:18:03;;;;;;;7.43;2.63;;;;;;;;;;5050241;28;20028;-83
2022/09/20 04:20:47;;;;;;;6.00;2.85;;;;;;;;;;5051912;28;20020;-82
2022/09/20 04:23:30;;;;;;;5.43;2.70;;;;;;;;;;5051863;28;20056;-83
2022/09/20 04:25:58;;;;;;;6.93;3.10;;;;;;;;;;5053903;28;20031;-81
2022/09/20 04:28:27;;;;;;;5.65;3.67;;;;;;;;;;5055044;28;20085;-83
2022/09/20 04:30:56;;;;;;;6.05;3.42;;;;;;;;;;5053196;28;20052;-80
2022/09/20 04:33:32;;;;;;;5.40;3.42;;;;;;;;;;5055555;28;20327;-82
2022/09/20 04:36:29;;;;;;;8.77;3.58;;;;;;;;;;5052393;28;20477;-82
2022/09/20 04:39:02;;;;;;;6.35;3.20;;;;;;;;;;5052331;28;20029;-82
2022/09/20 04:41:34;;;;;;;4.18;2.80;;;;;;;;;;5054462;28;20075;-81
2022/09/20 04:44:26;;;;;;;5.53;2.88;;;;;;;;;;5049441;28;20029;-82
2022/09/20 04:47:11;;;;;;;7.72;3.17;;;;;;;;;;5052159;28;20120;-82
2022/09/20 04:49:49;;;;;;;6.55;2.75;;;;;;;;;;5051604;28;20541;-82
2022/09/20 04:52:45;;;;;;;4.15;3.03;;;;;;;;;;5053874;28;20036;-83
2022/09/20 04:55:11;;;;;;;5.00;2.95;;;;;;;;;;5037627;28;20531;-82
2022/09/20 04:57:55;;;;;;;9.05;3.25;;;;;;;;;;5050688;28;20223;-83
2022/09/20 05:00:23;;;;;;;14.63;2.88;;;;;;;;;;5053276;28;20036;-83
2022/09/20 05:03:08;;;;;;;6.50;3.10;;;;;;;;;;5060766;28;20052;-82
2022/09/20 05:05:34;;;;;;;10.88;3.10;;;;;;;;;;5048594;28;20029;-83
2022/09/20 05:08:20;;;;;;;8.52;3.20;;;;;;;;;;5049819;28;20079;-82
2022/09/20 05:10:46;;;;;;;6.45;3.20;;;;;;;;;;5051344;28;20052;-82
2022/09/20 05:13:30;;;;;;;11.65;3.30;;;;;;;;;;5052853;28;20497;-83
2022/09/20 05:15:59;;;;;;;10.88;3.15;;;;;;;;;;5052379;28;20075;-81
2022/09/20 05:18:44;;;;;;;4.55;3.10;;;;;;;;;;5050563;28;20830;-82
2022/09/20 05:21:10;;;;;;;7.00;3.00;;;;;;;;;;5049498;28;20033;-83
2022/09/20 05:23:42;;;;;;;5.88;2.88;;;;;;;;;;5051204;28;20247;-79
2022/09/20 05:26:41;;;;;;;9.18;3.13;;;;;;;;;;5052495;28;20036;-82
2022/09/20 05:29:10;;;;;;;11.52;3.80;;;;;;;;;;5044188;28;20041;-80
2022/09/20 05:31:55;;;;;;;7.13;3.83;;;;;;;;;;5049559;28;20037;-81
2022/09/20 05:34:21;;;;;;;15.60;7.07;;;;;;;;;;5058356;28;20027;-81
2022/09/20 05:36:59;;;;;;;15.20;6.53;;;;;;;;;;5056349;28;20054;-80
2022/09/20 05:39:34;;;;;;;13.85;8.15;;;;;;;;;;5054513;28;20118;-80
2022/09/20 05:42:17;;;;;;;29.27;14.88;;;;;;;;;;5049380;28;20017;-80
2022/09/20 05:45:07;;;;;;;17.90;11.07;;;;;;;;;;5052065;28;20025;-80
2022/09/20 05:47:33;;;;;;;15.15;8.75;;;;;;;;;;5049049;28;20099;-80
2022/09/20 05:50:09;;;;;;;18.30;7.35;;;;;;;;;;5050582;28;20139;-79
2022/09/20 05:52:46;;;;;;;9.68;5.55;;;;;;;;;;5047472;28;20385;-80
2022/09/20 05:55:28;;;;;;;9.98;6.13;;;;;;;;;;5051765;28;20025;-81
2022/09/20 05:58:23;;;;;;;15.30;7.00;;;;;;;;;;5048222;28;20025;-80
2022/09/20 06:00:53;;;;;;;12.82;7.03;;;;;;;;;;5049297;28;20057;-80
2022/09/20 06:03:19;;;;;;;8.68;4.35;;;;;;;;;;5049032;28;20078;-80
2022/09/20 06:06:02;;;;;;;8.07;3.42;;;;;;;;;;5049814;28;20016;-81
2022/09/20 06:08:43;;;;;;;7.53;3.10;;;;;;;;;;5051009;28;20029;-81
2022/09/20 06:11:28;;;;;;;5.57;2.97;;;;;;;;;;5049236;28;20028;-80
2022/09/20 06:13:59;;;;;;;7.13;3.38;;;;;;;;;;5049112;28;20047;-80
2022/09/20 06:16:44;;;;;;;8.35;3.35;;;;;;;;;;5047309;28;20020;-81
2022/09/20 06:19:16;;;;;;;10.15;4.45;;;;;;;;;;5049399;28;20039;-81
2022/09/20 06:21:42;;;;;;;;;;;;;;;;;;5050491;28;20029;-80
2022/09/20 06:24:18;;;;;;;7.53;4.20;;;;;;;;;;5051293;28;19966;-81
2022/09/20 06:26:44;;;;;;;8.23;4.70;;;;;;;;;;5047611;28;20239;-81
2022/09/20 06:29:12;;;;;;;8.40;5.13;;;;;;;;;;5051021;28;20033;-80
2022/09/20 06:31:38;;;;;;;12.10;5.43;;;;;;;;;;5046852;28;20013;-80
2022/09/20 06:34:12;;;;;;;7.57;3.92;;;;;;;;;;5049033;28;20723;-81
2022/09/20 06:42:22;;;;;;;5.40;2.85;;;;;;;;;;5054888;28;20528;-81
2022/09/20 06:44:48;;;;;;;6.68;3.25;;;;;;;;;;5054784;28;20089;-81
2022/09/20 06:47:15;;;;;;;35.65;20.50;;;;;;;;;;5057263;28;20016;-80
2022/09/20 06:49:41;;;;;;;13.43;9.00;;;;;;;;;;5055183;28;20056;-81
2022/09/20 06:52:17;;;;;;;18.83;7.72;;;;;;;;;;5058155;28;20021;-81
2022/09/20 06:54:44;;;;;;;13.05;5.03;;;;;;;;;;5056731;28;20033;-80
2022/09/20 06:57:12;;;;;;;7.28;4.57;;;;;;;;;;5056917;28;20060;-81
2022/09/20 06:59:38;;;;;;;9.02;4.93;;;;;;;;;;5060881;28;20021;-80
2022/09/20 07:02:05;;;;;;;9.10;4.47;;;;;;;;;;5047498;28;20088;-79
2022/09/20 07:04:31;;;;;;;7.15;3.60;;;;;;;;;;5048721;28;20386;-79
2022/09/20 07:07:01;;;;;;;7.30;3.50;;;;;;;;;;5051199;28;20032;-80
2022/09/20 07:09:27;;;;;;;7.32;3.53;;;;;;;;;;5046558;28;20032;-78
2022/09/20 07:11:54;;;;;;;6.35;3.33;;;;;;;;;;5047442;28;20025;-78
2022/09/20 07:14:21;;;;;;;7.43;3.70;;;;;;;;;;5047339;28;20060;-78
2022/09/20 07:16:48;;;;;;;7.45;3.80;;;;;;;;;;5044951;28;20036;-79
2022/09/20 07:19:15;;;;;;;7.05;3.15;;;;;;;;;;5047500;28;20045;-78
2022/09/20 07:21:41;;;;;;;7.13;2.83;;;;;;;;;;5047094;28;20069;-76
2022/09/20 07:24:07;;;;;;;8.63;3.13;;;;;;;;;;5055465;28;20056;-76
2022/09/20 07:26:34;;;;;;;8.02;3.22;;;;;;;;;;5053258;28;20031;-76
2022/09/20 07:29:00;;;;;;;7.32;2.90;;;;;;;;;;5046061;28;20766;-77
2022/09/20 07:31:27;;;;;;;6.55;3.28;;;;;;;;;;5045972;28;20089;-76
2022/09/20 07:33:54;;;;;;;5.70;2.90;;;;;;;;;;5049847;28;20086;-79
2022/09/20 07:36:20;;;;;;;9.85;3.20;;;;;;;;;;5063875;28;20496;-78
2022/09/20 07:38:51;;;;;;;8.52;4.20;;;;;;;;;;5055097;28;20029;-77
2022/09/20 07:41:17;;;;;;;6.37;3.60;;;;;;;;;;5054031;28;20064;-76
2022/09/20 07:43:44;;;;;;;5.78;3.38;;;;;;;;;;5059443;28;20639;-76
2022/09/20 07:46:13;;;;;;;6.85;3.00;;;;;;;;;;5054606;28;20074;-77
2022/09/20 07:48:40;;;;;;;6.15;3.03;;;;;;;;;;5060052;28;20039;-77
2022/09/20 07:51:08;;;;;;;5.45;2.88;;;;;;;;;;5059070;28;20110;-77
2022/09/20 07:53:34;;;;;;;7.35;3.33;;;;;;;;;;5056528;28;20476;-76
2022/09/20 07:56:02;;;;;;;6.60;3.00;;;;;;;;;;5056749;28;20037;-78
2022/09/20 07:58:32;;;;;;;6.00;3.20;;;;;;;;;;5058874;28;20188;-77
2022/09/20 08:00:59;;;;;;;5.30;2.70;;;;;;;;;;5060359;28;20051;-74
2022/09/20 08:03:26;;;;;;;5.47;3.10;;;;;;;;;;5060155;28;20075;-76
2022/09/20 08:05:58;;;;;;;8.63;3.10;;;;;;;;;;5060768;28;20096;-76
2022/09/20 08:08:24;;;;;;;5.63;3.00;;;;;;;;;;5057280;28;20029;-77
2022/09/20 08:10:50;;;;;;;5.82;3.15;;;;;;;;;;5050839;28;20032;-77
2022/09/20 08:13:16;;;;;;;5.22;2.95;;;;;;;;;;5053237;28;20337;-77
2022/09/20 08:15:43;;;;;;;5.28;2.97;;;;;;;;;;5051629;28;20043;-77
2022/09/20 08:18:12;;;;;;;4.63;2.70;;;;;;;;;;5056254;28;20116;-76
2022/09/20 08:20:38;;;;;;;4.95;3.25;;;;;;;;;;5052333;28;20028;-77
2022/09/20 08:23:05;;;;;;;7.18;3.63;;;;;;;;;;5049968;28;20033;-81
2022/09/20 08:25:32;;;;;;;6.25;2.80;;;;;;;;;;5071180;28;20032;-76
2022/09/20 08:27:58;;;;;;;5.47;3.13;;;;;;;;;;5054366;28;20622;-77
2022/09/20 08:30:25;;;;;;;6.10;3.28;;;;;;;;;;5048314;28;20074;-78
2022/09/20 08:32:54;;;;;;;7.50;3.28;;;;;;;;;;5050807;28;20051;-77
2022/09/20 08:35:21;;;;;;;4.85;3.20;;;;;;;;;;5050858;28;20032;-77
2022/09/20 08:37:47;;;;;;;6.43;3.22;;;;;;;;;;5048413;28;20355;-75
2022/09/20 08:40:14;;;;;;;7.05;3.70;;;;;;;;;;5048280;28;20028;-76
2022/09/20 08:42:43;;;;;;;8.57;3.75;;;;;;;;;;5046541;28;20095;-77
2022/09/20 08:45:19;;;;;;;10.80;3.78;;;;;;;;;;5056442;28;20021;-77
2022/09/20 08:47:48;;;;;;;10.23;3.45;;;;;;;;;;5054768;28;20035;-76
2022/09/20 08:50:14;;;;;;;7.85;3.90;;;;;;;;;;5051114;28;20037;-76
2022/09/20 08:52:43;;;;;;;7.10;3.70;;;;;;;;;;5043376;28;20039;-77
2022/09/20 08:55:17;;;;;;;13.60;4.60;;;;;;;;;;5045502;28;20032;-76
2022/09/20 08:57:45;;;;;;;7.15;3.65;;;;;;;;;;5050108;28;20604;-75
2022/09/20 09:00:19;;;;;;;7.43;3.55;;;;;;;;;;5049117;28;20040;-77
2022/09/20 09:02:45;;;;;;;7.95;3.92;;;;;;;;;;5045522;28;20064;-76
2022/09/20 09:05:22;;;;;;;6.47;3.85;;;;;;;;;;5046421;28;20052;-74
2022/09/20 09:07:48;;;;;;;7.20;3.85;;;;;;;;;;5055686;28;20120;-74
2022/09/20 09:10:15;;;;;;;9.23;3.90;;;;;;;;;;5066708;28;20024;-75
2022/09/20 09:12:45;;;;;;;9.07;3.63;;;;;;;;;;5058213;28;20569;-74
2022/09/20 09:15:43;;;;;;;7.18;3.58;;;;;;;;;;5054948;28;20025;-74
2022/09/20 09:18:11;;;;;;;7.07;3.60;;;;;;;;;;5047342;28;20119;-75
2022/09/20 09:20:45;;;;;;;6.85;3.72;;;;;;;;;;5056612;28;20302;-74
2022/09/20 09:23:24;;;;;;;9.18;3.75;;;;;;;;;;5054617;28;20499;-75
2022/09/20 09:25:50;;;;;;;9.23;4.07;;;;;;;;;;5058752;28;20029;-75
2022/09/20 09:28:20;;;;;;;7.28;3.15;;;;;;;;;;5059079;28;20024;-75
2022/09/20 09:30:46;;;;;;;4.68;3.50;;;;;;;;;;5053548;28;20028;-75
2022/09/20 09:33:22;;;;;;;12.38;3.97;;;;;;;;;;5057175;28;20025;-75
2022/09/20 09:35:56;;;;;;;6.70;2.70;;;;;;;;;;5053222;28;20025;-76
2022/09/20 09:38:25;;;;;;;4.93;2.67;;;;;;;;;;5055936;28;20025;-75
2022/09/20 09:40:53;;;;;;;7.78;2.90;;;;;;;;;;5053269;28;20033;-75
2022/09/20 09:43:22;;;;;;;4.80;2.80;;;;;;;;;;5058161;28;20442;-75
2022/09/20 09:45:48;;;;;;;9.00;2.45;;;;;;;;;;5054118;28;20021;-76
2022/09/20 09:48:21;;;;;;;5.63;2.90;;;;;;;;;;5050560;28;20047;-75
2022/09/20 09:50:47;;;;;;;5.82;2.60;;;;;;;;;;5052393;28;20448;-75
2022/09/20 09:53:15;;;;;;;4.38;2.60;;;;;;;;;;5049158;28;20039;-76
2022/09/20 09:56:00;;;;;;;5.47;2.60;;;;;;;;;;5045204;28;20598;-75
2022/09/20 09:58:34;;;;;;;7.25;3.03;;;;;;;;;;5051112;28;20430;-75
2022/09/20 10:01:02;;;;;;;8.60;2.92;;;;;;;;;;5041310;28;20027;-75
2022/09/20 10:03:37;;;;;;;6.78;3.13;;;;;;;;;;5048956;28;20024;-75
2022/09/20 10:06:04;;;;;;;7.13;2.92;;;;;;;;;;5054473;28;20040;-75
2022/09/20 10:08:49;;;;;;;6.45;3.08;;;;;;;;;;5054207;28;20051;-76
2022/09/20 10:11:22;;;;;;;4.07;2.90;;;;;;;;;;5057596;28;20012;-76
2022/09/20 10:14:02;;;;;;;4.97;2.80;;;;;;;;;;5056872;28;20031;-76
2022/09/20 10:16:34;;;;;;;4.80;2.58;;;;;;;;;;5055888;28;20476;-75
2022/09/20 10:19:07;;;;;;;6.45;3.15;;;;;;;;;;5056533;28;20033;-76
2022/09/20 10:21:52;;;;;;;5.80;2.67;;;;;;;;;;5057582;28;20055;-76
2022/09/20 10:24:29;;;;;;;6.30;2.70;;;;;;;;;;5057410;28;20032;-76
2022/09/20 10:27:13;;;;;;;9.40;3.25;;;;;;;;;;5068012;28;20025;-76
2022/09/20 10:29:58;;;;;;;4.93;2.85;;;;;;;;;;5057572;28;20027;-76
2022/09/20 10:32:38;;;;;;;5.13;2.45;;;;;;;;;;5053944;28;20028;-76
2022/09/20 10:35:22;;;;;;;4.63;2.67;;;;;;;;;;5056925;28;20036;-75
2022/09/20 10:38:03;;;;;;;5.28;2.63;;;;;;;;;;5056410;28;20021;-76
2022/09/20 10:43:13;;;;;;;4.45;2.50;;;;;;;;;;5051825;28;20096;-76
2022/09/20 10:43:21;;;;;;;10.50;2.97;;;;;;;;;;5052526;28;20067;-77
2022/09/20 10:46:09;;;;;;;5.68;2.70;;;;;;;;;;5049066;28;20037;-76
2022/09/20 10:48:41;;;;;;;6.03;2.88;;;;;;;;;;5049085;28;20032;-78
2022/09/20 10:51:26;;;;;;;4.38;2.70;;;;;;;;;;5047810;28;20136;-75
2022/09/20 10:53:58;;;;;;;3.92;2.67;;;;;;;;;;5048243;28;20029;-76
2022/09/20 10:56:24;;;;;;;6.30;2.85;;;;;;;;;;5049047;28;20028;-76
2022/09/20 10:58:54;;;;;;;5.05;2.65;;;;;;;;;;5052086;28;20027;-76
2022/09/20 11:01:50;;;;;;;6.47;3.22;;;;;;;;;;5045374;28;20021;-75
2022/09/20 11:04:22;;;;;;;6.05;2.83;;;;;;;;;;5037480;28;20603;-75
2022/09/20 11:06:51;;;;;;;5.38;2.85;;;;;;;;;;5042129;28;20099;-75
2022/09/20 11:09:20;;;;;;;5.65;3.05;;;;;;;;;;5044189;28;20108;-76
2022/09/20 11:11:50;;;;;;;7.22;2.72;;;;;;;;;;5044092;28;20037;-78
2022/09/20 11:14:16;;;;;;;5.57;2.70;;;;;;;;;;5048975;28;20035;-76
2022/09/20 11:16:53;;;;;;;3.75;2.50;;;;;;;;;;5043276;28;20369;-76
2022/09/20 11:19:27;;;;;;;6.72;2.38;;;;;;;;;;5047592;28;20025;-77
2022/09/20 11:22:07;;;;;;;5.07;2.67;;;;;;;;;;5051234;28;20803;-78
2022/09/20 11:24:36;;;;;;;7.15;3.25;;;;;;;;;;5058961;28;20487;-78
2022/09/20 11:27:05;;;;;;;7.25;3.10;;;;;;;;;;5054136;28;20079;-78
2022/09/20 11:29:43;;;;;;;5.18;2.58;;;;;;;;;;5060374;28;20062;-76
2022/09/20 11:32:36;;;;;;;5.78;3.25;;;;;;;;;;5056886;28;20033;-76
2022/09/20 11:35:13;;;;;;;3.20;2.42;;;;;;;;;;5052924;28;20037;-78
2022/09/20 11:37:42;;;;;;;8.55;3.30;;;;;;;;;;5055975;28;20024;-78
2022/09/20 11:40:14;;;;;;;7.00;2.97;;;;;;;;;;5049617;28;20862;-78
2022/09/20 11:42:40;;;;;;;8.15;3.15;;;;;;;;;;5047613;28;20033;-77
2022/09/20 11:45:11;;;;;;;9.10;3.50;;;;;;;;;;5052064;28;20067;-77
2022/09/20 11:47:42;;;;;;;5.22;2.33;;;;;;;;;;5049572;28;20108;-78
2022/09/20 11:50:33;;;;;;;5.22;2.67;;;;;;;;;;5054135;28;20049;-76
2022/09/20 11:52:59;;;;;;;5.00;2.55;;;;;;;;;;5052380;28;20021;-76
2022/09/20 11:55:57;;;;;;;8.77;2.90;;;;;;;;;;5058385;28;20050;-76
2022/09/20 11:58:24;;;;;;;4.90;2.50;;;;;;;;;;5047477;28;20036;-76
2022/09/20 12:00:53;;;;;;;7.40;2.90;;;;;;;;;;5054004;28;20181;-75
2022/09/20 12:03:30;;;;;;;6.47;2.78;;;;;;;;;;5053286;28;20084;-76
2022/09/20 12:06:05;;;;;;;6.88;3.25;;;;;;;;;;5053220;28;20605;-77
2022/09/20 12:08:33;;;;;;;5.05;2.85;;;;;;;;;;5052798;28;20029;-76
2022/09/20 12:11:00;;;;;;;6.20;2.70;;;;;;;;;;5049904;28;20839;-76
2022/09/20 12:13:27;;;;;;;8.15;3.20;;;;;;;;;;5053635;28;20119;-76
2022/09/20 12:16:02;;;;;;;5.40;2.60;;;;;;;;;;5050488;28;20024;-76
2022/09/20 12:18:28;;;;;;;6.47;2.97;;;;;;;;;;5045813;28;20025;-77
2022/09/20 12:21:00;;;;;;;5.80;2.70;;;;;;;;;;5046157;28;20485;-75
2022/09/20 12:23:41;;;;;;;5.22;2.92;;;;;;;;;;5048166;28;20045;-76
2022/09/20 12:26:12;;;;;;;4.18;2.70;;;;;;;;;;5044979;28;20156;-76
2022/09/20 12:28:51;;;;;;;4.72;2.78;;;;;;;;;;5045361;28;20021;-77
2022/09/20 12:31:33;;;;;;;5.93;2.88;;;;;;;;;;5048325;28;20058;-77
2022/09/20 12:34:11;;;;;;;4.45;2.60;;;;;;;;;;5053402;28;20029;-76
2022/09/20 12:36:37;;;;;;;4.28;2.50;;;;;;;;;;5051698;28;20744;-76
2022/09/20 12:39:04;;;;;;;5.65;3.08;;;;;;;;;;5054346;28;20040;-76
2022/09/20 12:41:44;;;;;;;5.35;2.78;;;;;;;;;;5053697;28;20017;-76
2022/09/20 12:44:29;;;;;;;4.13;2.70;;;;;;;;;;5055801;28;20028;-76
2022/09/20 12:47:03;;;;;;;5.85;2.67;;;;;;;;;;5050232;28;20039;-76
2022/09/20 12:55:06;;;;;;;3.30;2.60;;;;;;;;;;5053287;28;20040;-76
2022/09/20 12:57:34;;;;;;;5.30;2.58;;;;;;;;;;5049989;28;20568;-76
2022/09/20 13:00:01;;;;;;;3.78;2.75;;;;;;;;;;5049106;28;20033;-76
2022/09/20 13:03:00;;;;;;;6.63;2.97;;;;;;;;;;5054681;28;20075;-77
2022/09/20 13:05:31;;;;;;;12.43;2.95;;;;;;;;;;5026834;28;20503;-72
2022/09/20 13:08:00;;;;;;;4.75;2.95;;;;;;;;;;5055790;28;20082;-73
2022/09/20 13:10:29;;;;;;;5.85;2.90;;;;;;;;;;5059225;28;20036;-72
2022/09/20 13:13:03;;;;;;;6.35;2.88;;;;;;;;;;5059096;28;20024;-71
2022/09/20 13:15:32;;;;;;;7.95;3.05;;;;;;;;;;5057555;28;20455;-72
2022/09/20 13:18:00;;;;;;;4.40;2.35;;;;;;;;;;5059086;28;20023;-72
2022/09/20 13:20:33;;;;;;;7.13;2.90;;;;;;;;;;5056897;28;20115;-71
2022/09/20 13:23:00;;;;;;;4.90;2.88;;;;;;;;;;5056729;28;20032;-71
2022/09/20 13:25:27;;;;;;;4.03;2.42;;;;;;;;;;5058796;28;20472;-71
2022/09/20 13:28:07;;;;;;;5.53;2.95;;;;;;;;;;5058695;28;20078;-71
2022/09/20 13:30:40;;;;;;;5.43;2.75;;;;;;;;;;5044967;28;20025;-80
2022/09/20 13:33:19;;;;;;;4.10;2.35;;;;;;;;;;5066337;28;20546;-72
2022/09/20 13:35:47;;;;;;;3.47;2.28;;;;;;;;;;5056021;28;20366;-72
2022/09/20 13:38:14;;;;;;;5.32;2.60;;;;;;;;;;5056789;28;20072;-71
2022/09/20 13:40:46;;;;;;;6.30;2.45;;;;;;;;;;5056983;28;20537;-74
2022/09/20 13:43:30;;;;;;;6.93;2.75;;;;;;;;;;5050443;28;20370;-73
2022/09/20 13:46:15;;;;;;;6.70;2.42;;;;;;;;;;5054277;28;20025;-72
2022/09/20 13:48:41;;;;;;;6.40;2.22;;;;;;;;;;5052835;28;20086;-77
2022/09/20 13:51:18;;;;;;;7.75;2.67;;;;;;;;;;5052101;28;20493;-73
2022/09/20 13:53:46;;;;;;;4.85;2.65;;;;;;;;;;5059950;28;20024;-72
2022/09/20 13:56:21;;;;;;;5.03;3.13;;;;;;;;;;5053085;28;20032;-72
2022/09/20 13:58:48;;;;;;;3.97;2.42;;;;;;;;;;5053697;28;20547;-73
2022/09/20 14:01:33;;;;;;;5.35;2.45;;;;;;;;;;5054698;28;20389;-73
2022/09/20 14:04:05;;;;;;;5.47;2.42;;;;;;;;;;5047704;28;20064;-73
2022/09/20 14:06:32;;;;;;;5.40;2.60;;;;;;;;;;5045258;28;20060;-73
2022/09/20 14:08:59;;;;;;;6.72;2.63;;;;;;;;;;5048564;28;20981;-73
2022/09/20 14:11:26;;;;;;;6.45;2.42;;;;;;;;;;5048345;28;20198;-73
2022/09/20 14:13:57;;;;;;;6.25;3.00;;;;;;;;;;5047966;28;20130;-73
2022/09/20 14:16:27;;;;;;;11.70;3.67;;;;;;;;;;5043645;28;20029;-73
2022/09/20 14:18:53;;;;;;;16.63;3.65;;;;;;;;;;5046277;28;20028;-74
2022/09/20 14:21:27;;;;;;;10.00;2.70;;;;;;;;;;5048702;28;20017;-74
2022/09/20 14:24:01;;;;;;;8.15;2.65;;;;;;;;;;5046485;28;20421;-74
2022/09/20 14:26:35;;;;;;;7.03;2.58;;;;;;;;;;5045571;28;20833;-73
2022/09/20 14:29:40;;;;;;;3.72;2.40;;;;;;;;;;5059153;28;20033;-73
2022/09/20 14:32:18;;;;;;;11.25;2.88;;;;;;;;;;5036414;28;20105;-74
2022/09/20 14:34:44;;;;;;;7.30;2.78;;;;;;;;;;5037690;28;20123;-73
2022/09/20 14:37:16;;;;;;;7.13;2.75;;;;;;;;;;5042960;28;20504;-73
2022/09/20 14:39:49;;;;;;;4.97;2.13;;;;;;;;;;5052940;28;20109;-73
2022/09/20 14:42:20;;;;;;;4.63;2.50;;;;;;;;;;5049840;28;20462;-73
2022/09/20 14:44:49;;;;;;;4.68;2.22;;;;;;;;;;5048220;28;20103;-73
2022/09/20 14:47:15;;;;;;;5.60;2.78;;;;;;;;;;5045827;28;20028;-73
2022/09/20 14:49:44;;;;;;;4.60;2.10;;;;;;;;;;5052319;28;20155;-74
2022/09/20 14:52:26;;;;;;;5.90;2.42;;;;;;;;;;5056989;28;20056;-74
2022/09/20 14:55:11;;;;;;;3.83;2.58;;;;;;;;;;5049109;28;20013;-73
2022/09/20 14:57:37;;;;;;;3.00;2.08;;;;;;;;;;5056076;28;20034;-73
2022/09/20 15:00:14;;;;;;;3.40;2.40;;;;;;;;;;5069466;28;20055;-73
2022/09/20 15:02:42;;;;;;;4.90;2.35;;;;;;;;;;5058978;28;20043;-74
2022/09/20 15:05:28;;;;;;;5.45;2.03;;;;;;;;;;5052106;28;20032;-75
2022/09/20 15:07:56;;;;;;;6.35;2.30;;;;;;;;;;5048158;28;20083;-74
2022/09/20 15:10:22;;;;;;;5.78;2.33;;;;;;;;;;5041974;28;20025;-75
2022/09/20 15:12:49;;;;;;;4.68;2.20;;;;;;;;;;5056613;28;20035;-75
2022/09/20 15:15:17;;;;;;;4.88;2.17;;;;;;;;;;5054310;28;20447;-75
2022/09/20 15:17:44;;;;;;;4.82;2.00;;;;;;;;;;5055963;28;20047;-76
2022/09/20 15:20:15;;;;;;;5.40;1.85;;;;;;;;;;5058243;28;20376;-76
2022/09/20 15:22:41;;;;;;;3.92;2.42;;;;;;;;;;5054028;28;20706;-76
2022/09/20 15:25:12;;;;;;;6.07;2.35;;;;;;;;;;5049593;28;20021;-76
2022/09/20 15:27:38;;;;;;;15.77;3.80;;;;;;;;;;5049836;28;20044;-76